createdAt,value
2022-11-28T00:01:28.064Z,25.05
2022-11-28T00:03:55.347Z,24.73
2022-11-28T00:06:22.877Z,23.20
2022-11-28T00:08:50.256Z,21.85
2022-11-28T00:11:17.981Z,20.67
2022-11-28T00:13:46.634Z,21.45
2022-11-28T00:16:24.021Z,20.02
2022-11-28T00:18:53.021Z,18.45
2022-11-28T00:21:20.634Z,20.10
2022-11-28T00:23:48.533Z,18.75
2022-11-28T00:26:27.793Z,21.33
2022-11-28T00:28:56.022Z,20.35
2022-11-28T00:31:29.244Z,18.10
2022-11-28T00:33:56.869Z,18.10
2022-11-28T00:36:24.075Z,17.88
2022-11-28T00:38:51.436Z,18.38
2022-11-28T00:41:21.350Z,18.95
2022-11-28T00:43:49.969Z,19.45
2022-11-28T00:46:19.558Z,18.77
2022-11-28T00:48:46.913Z,16.98
2022-11-28T00:51:17.645Z,17.83
2022-11-28T00:53:47.816Z,18.65
2022-11-28T00:56:17.704Z,18.10
2022-11-28T00:58:45.226Z,18.23
2022-11-28T01:01:20.629Z,17.52
2022-11-28T01:03:49.404Z,18.08
2022-11-28T01:06:26.754Z,18.42
2022-11-28T01:08:54.852Z,16.00
2022-11-28T01:11:22.369Z,18.33
2022-11-28T01:13:50.017Z,18.73
2022-11-28T01:16:17.475Z,20.20
2022-11-28T01:18:44.660Z,18.05
2022-11-28T01:21:11.810Z,18.48
2022-11-28T01:23:39.296Z,19.58
2022-11-28T01:26:08.516Z,21.02
2022-11-28T01:28:36.285Z,21.45
2022-11-28T01:31:06.012Z,20.15
2022-11-28T01:33:33.896Z,22.23
2022-11-28T01:36:01.636Z,20.90
2022-11-28T01:38:28.813Z,20.90
2022-11-28T01:40:56.806Z,19.65
2022-11-28T01:43:25.117Z,19.63
2022-11-28T01:45:52.753Z,21.20
2022-11-28T01:48:37.940Z,22.27
2022-11-28T01:51:08.266Z,21.67
2022-11-28T01:53:40.813Z,21.30
2022-11-28T01:56:22.107Z,20.60
2022-11-28T01:58:54.561Z,19.60
2022-11-28T02:01:24.344Z,18.52
2022-11-28T02:03:53.346Z,20.05
2022-11-28T02:06:23.173Z,17.52
2022-11-28T02:08:55.196Z,18.25
2022-11-28T02:11:51.650Z,17.77
2022-11-28T02:14:31.133Z,18.10
2022-11-28T02:17:33.266Z,17.25
2022-11-28T02:20:24.762Z,16.73
2022-11-28T02:23:06.402Z,18.05
2022-11-28T02:25:52.020Z,17.95
2022-11-28T02:28:31.240Z,17.17
2022-11-28T02:31:26.494Z,16.63
2022-11-28T02:33:57.005Z,16.30
2022-11-28T02:36:32.583Z,16.20
2022-11-28T02:39:45.232Z,17.35
2022-11-28T02:43:02.624Z,15.52
2022-11-28T02:45:32.566Z,17.88
2022-11-28T02:48:07.066Z,17.55
2022-11-28T02:50:41.973Z,17.48
2022-11-28T02:53:14.020Z,17.73
2022-11-28T02:55:43.369Z,20.80
2022-11-28T02:58:12.597Z,18.38
2022-11-28T03:00:43.533Z,20.52
2022-11-28T03:03:46.171Z,17.63
2022-11-28T03:06:30.248Z,17.27
2022-11-28T03:09:20.655Z,19.60
2022-11-28T03:12:01.792Z,19.33
2022-11-28T03:14:47.417Z,16.50
2022-11-28T03:17:20.045Z,15.82
2022-11-28T03:19:57.208Z,15.02
2022-11-28T03:22:27.090Z,16.42
2022-11-28T03:25:06.066Z,15.93
2022-11-28T03:27:39.526Z,14.63
2022-11-28T03:30:15.337Z,14.85
2022-11-28T03:32:46.041Z,12.68
2022-11-28T03:35:19.393Z,14.50
2022-11-28T03:37:57.333Z,13.02
2022-11-28T03:40:30.763Z,12.63
2022-11-28T03:43:02.754Z,12.90
2022-11-28T03:45:36.388Z,13.52
2022-11-28T03:48:18.390Z,14.30
2022-11-28T03:50:52.185Z,14.55
2022-11-28T03:56:05.140Z,12.63
2022-11-28T03:58:49.553Z,12.43
2022-11-28T04:01:34.317Z,11.75
2022-11-28T04:04:23.226Z,11.95
2022-11-28T04:07:27.015Z,12.18
2022-11-28T04:10:17.043Z,11.27
2022-11-28T04:12:59.533Z,11.55
2022-11-28T04:15:37.425Z,11.45
2022-11-28T04:18:23.774Z,12.23
2022-11-28T04:21:06.100Z,11.48
2022-11-28T04:23:35.656Z,11.43
2022-11-28T04:26:13.997Z,11.40
2022-11-28T04:28:42.541Z,10.85
2022-11-28T04:31:10.277Z,12.60
2022-11-28T04:33:42.976Z,12.13
2022-11-28T04:36:12.070Z,12.18
2022-11-28T04:38:42.373Z,10.90
2022-11-28T04:41:20.591Z,12.93
2022-11-28T04:43:57.225Z,17.42
2022-11-28T04:46:29.286Z,13.27
2022-11-28T04:48:56.454Z,12.50
2022-11-28T04:51:34.100Z,11.27
2022-11-28T04:54:07.347Z,10.32
2022-11-28T04:56:43.922Z,11.90
2022-11-28T04:59:13.493Z,10.82
2022-11-28T05:01:44.139Z,10.93
2022-11-28T05:04:13.631Z,11.40
2022-11-28T05:06:40.836Z,11.25
2022-11-28T05:09:10.033Z,10.30
2022-11-28T05:11:37.365Z,10.75
2022-11-28T05:14:04.517Z,10.73
2022-11-28T05:16:31.713Z,10.98
2022-11-28T05:18:58.929Z,11.52
2022-11-28T05:21:26.112Z,11.23
2022-11-28T05:23:53.245Z,11.70
2022-11-28T05:26:21.552Z,11.82
2022-11-28T05:28:50.900Z,11.27
2022-11-28T05:31:20.568Z,11.73
2022-11-28T05:33:47.753Z,14.20
2022-11-28T05:36:16.404Z,12.48
2022-11-28T05:38:44.355Z,12.70
2022-11-28T05:41:19.932Z,14.07
2022-11-28T05:43:47.576Z,14.68
2022-11-28T05:46:15.287Z,15.30
2022-11-28T05:48:42.529Z,13.93
2022-11-28T05:51:09.730Z,15.15
2022-11-28T05:53:36.962Z,14.60
2022-11-28T05:56:12.286Z,16.05
2022-11-28T05:58:39.706Z,16.48
2022-11-28T06:01:15.796Z,17.52
2022-11-28T06:03:43.489Z,18.15
2022-11-28T06:06:19.469Z,19.60
2022-11-28T06:08:48.787Z,18.58
2022-11-28T06:11:16.667Z,20.52
2022-11-28T06:13:45.153Z,21.05
2022-11-28T06:16:26.510Z,20.35
2022-11-28T06:18:59.469Z,19.27
2022-11-28T06:21:28.446Z,21.20
2022-11-28T06:23:57.377Z,20.10
2022-11-28T06:26:26.138Z,20.15
2022-11-28T06:28:55.440Z,19.60
2022-11-28T06:31:25.311Z,18.45
2022-11-28T06:33:52.651Z,17.08
2022-11-28T06:36:20.598Z,15.52
2022-11-28T06:38:48.460Z,15.20
2022-11-28T06:41:18.300Z,15.00
2022-11-28T06:43:45.511Z,15.30
2022-11-28T06:46:18.873Z,13.68
2022-11-28T06:48:48.292Z,11.68
2022-11-28T06:51:16.052Z,11.00
2022-11-28T06:53:43.455Z,10.45
2022-11-28T06:56:16.184Z,9.10
2022-11-28T06:58:44.063Z,8.65
2022-11-28T07:01:20.326Z,9.35
2022-11-28T07:03:48.423Z,10.20
2022-11-28T07:06:17.411Z,9.35
2022-11-28T07:08:45.002Z,10.30
2022-11-28T07:11:24.147Z,9.73
2022-11-28T07:13:52.599Z,10.70
2022-11-28T07:16:26.385Z,11.88
2022-11-28T07:21:21.666Z,10.60
2022-11-28T07:23:49.082Z,10.95
2022-11-28T07:26:17.989Z,11.38
2022-11-28T07:28:45.843Z,10.75
2022-11-28T07:31:17.260Z,9.18
2022-11-28T07:33:46.633Z,8.20
2022-11-28T07:36:19.665Z,10.77
2022-11-28T07:38:48.706Z,9.77
2022-11-28T07:41:16.380Z,8.98
2022-11-28T07:43:45.346Z,9.00
2022-11-28T07:46:15.115Z,7.95
2022-11-28T07:48:42.812Z,8.35
2022-11-28T07:51:13.110Z,8.45
2022-11-28T07:53:41.305Z,8.05
2022-11-28T07:56:13.921Z,9.10
2022-11-28T07:58:42.548Z,9.52
2022-11-28T08:01:17.693Z,10.38
2022-11-28T08:03:45.836Z,11.23
2022-11-28T08:06:15.050Z,11.15
2022-11-28T08:08:42.433Z,8.45
2022-11-28T08:11:10.124Z,10.20
2022-11-28T08:13:38.381Z,9.18
2022-11-28T08:16:20.024Z,9.20
2022-11-28T08:18:48.776Z,9.05
2022-11-28T08:21:23.348Z,9.20
2022-11-28T08:23:51.921Z,8.68
2022-11-28T08:26:23.049Z,10.10
2022-11-28T08:28:53.496Z,8.80
2022-11-28T08:31:23.230Z,9.85
2022-11-28T08:33:52.141Z,10.02
2022-11-28T08:36:20.385Z,10.05
2022-11-28T08:39:03.471Z,10.60
2022-11-28T08:41:35.437Z,10.80
2022-11-28T08:44:02.556Z,12.55
2022-11-28T08:46:29.710Z,15.07
2022-11-28T08:48:56.902Z,12.80
2022-11-28T08:51:24.229Z,13.30
2022-11-28T08:53:57.877Z,14.00
2022-11-28T08:56:27.814Z,14.60
2022-11-28T08:58:55.638Z,14.00
2022-11-28T09:01:25.773Z,15.13
2022-11-28T09:03:55.548Z,14.45
2022-11-28T09:06:23.682Z,13.80
2022-11-28T09:08:51.831Z,14.20
2022-11-28T09:11:21.354Z,14.35
2022-11-28T09:13:48.852Z,15.10
2022-11-28T09:16:16.395Z,16.45
2022-11-28T09:18:43.623Z,16.00
2022-11-28T09:21:13.309Z,17.88
2022-11-28T09:23:42.375Z,17.27
2022-11-28T09:26:18.108Z,21.88
2022-11-28T09:28:46.100Z,18.88
2022-11-28T09:31:14.953Z,19.08
2022-11-28T09:33:42.764Z,19.80
2022-11-28T09:36:13.477Z,20.40
2022-11-28T09:38:40.747Z,19.92
2022-11-28T09:41:37.089Z,21.13
2022-11-28T09:44:16.578Z,22.08
2022-11-28T09:46:45.532Z,21.40
2022-11-28T09:49:40.637Z,20.15
2022-11-28T09:52:45.752Z,21.20
2022-11-28T09:55:31.571Z,21.63
2022-11-28T09:58:05.800Z,22.75
2022-11-28T10:00:51.362Z,22.98
2022-11-28T10:03:47.185Z,22.77
2022-11-28T10:06:44.440Z,25.33
2022-11-28T10:09:30.084Z,24.20
2022-11-28T10:12:06.768Z,25.80
2022-11-28T10:14:48.940Z,24.52
2022-11-28T10:17:27.173Z,25.45
2022-11-28T10:20:16.997Z,25.05
2022-11-28T10:22:57.864Z,25.98
2022-11-28T10:25:30.377Z,25.65
2022-11-28T10:27:58.189Z,29.05
2022-11-28T10:30:29.131Z,26.63
2022-11-28T10:33:06.136Z,29.10
2022-11-28T10:35:53.861Z,27.65
2022-11-28T10:38:25.647Z,29.55
2022-11-28T10:40:59.724Z,29.10
2022-11-28T10:43:59.427Z,29.52
2022-11-28T10:46:35.704Z,28.83
2022-11-28T10:49:27.819Z,30.20
2022-11-28T10:52:35.214Z,27.88
2022-11-28T10:55:27.967Z,28.00
2022-11-28T10:57:58.004Z,25.77
2022-11-28T11:00:25.192Z,27.00
2022-11-28T11:02:56.437Z,30.00
2022-11-28T11:05:30.656Z,28.77
2022-11-28T11:08:19.540Z,28.75
2022-11-28T11:11:24.310Z,30.27
2022-11-28T11:16:24.655Z,24.90
2022-11-28T11:18:54.396Z,28.63
2022-11-28T11:21:27.740Z,26.13
2022-11-28T11:24:17.210Z,26.55
2022-11-28T11:26:48.313Z,25.50
2022-11-28T11:29:37.352Z,24.88
2022-11-28T11:32:06.522Z,25.80
2022-11-28T11:34:44.094Z,23.85
2022-11-28T11:37:24.582Z,24.38
2022-11-28T11:39:53.251Z,23.58
2022-11-28T11:42:28.893Z,23.48
2022-11-28T11:44:57.009Z,22.60
2022-11-28T11:47:42.452Z,22.52
2022-11-28T11:50:21.097Z,19.85
2022-11-28T11:53:26.641Z,19.52
2022-11-28T11:55:55.849Z,19.95
2022-11-28T11:58:32.305Z,18.05
2022-11-28T12:01:00.594Z,18.02
2022-11-28T12:03:42.135Z,18.80
2022-11-28T12:06:17.681Z,18.52
2022-11-28T12:08:51.722Z,18.50
2022-11-28T12:12:01.835Z,18.05
2022-11-28T12:14:33.027Z,18.23
2022-11-28T12:17:57.185Z,16.25
2022-11-28T12:20:36.790Z,18.33
2022-11-28T12:23:36.445Z,16.60
2022-11-28T12:26:13.710Z,16.67
2022-11-28T12:28:48.685Z,17.30
2022-11-28T12:31:54.596Z,18.73
2022-11-28T12:34:36.899Z,16.30
2022-11-28T12:37:17.116Z,16.88
2022-11-28T12:40:02.711Z,17.60
2022-11-28T12:42:40.433Z,16.35
2022-11-28T12:45:15.561Z,16.48
2022-11-28T12:48:06.554Z,16.17
2022-11-28T12:50:38.476Z,15.88
2022-11-28T12:53:47.818Z,16.83
2022-11-28T12:56:29.001Z,15.77
2022-11-28T12:59:03.315Z,17.23
2022-11-28T13:01:54.877Z,16.25
2022-11-28T13:04:51.822Z,15.20
2022-11-28T13:07:34.797Z,15.07
2022-11-28T13:10:16.181Z,15.65
2022-11-28T13:12:50.865Z,14.13
2022-11-28T13:15:23.842Z,13.63
2022-11-28T13:18:04.079Z,14.27
2022-11-28T13:20:45.875Z,12.88
2022-11-28T13:23:24.950Z,12.07
2022-11-28T13:25:52.017Z,10.65
2022-11-28T13:28:21.718Z,11.68
2022-11-28T13:30:55.404Z,12.68
2022-11-28T13:39:20.146Z,12.50
2022-11-28T13:45:16.794Z,12.68
2022-11-28T13:47:43.904Z,12.77
2022-11-28T13:50:22.952Z,11.68
2022-11-28T13:53:00.034Z,12.50
2022-11-28T13:55:39.147Z,11.05
2022-11-28T13:58:28.364Z,13.73
2022-11-28T14:01:22.662Z,12.68
2022-11-28T14:04:08.977Z,14.75
2022-11-28T14:06:39.112Z,19.50
2022-11-28T14:09:30.479Z,13.02
2022-11-28T14:12:13.647Z,11.25
2022-11-28T14:15:10.078Z,12.93
2022-11-28T14:20:28.799Z,13.27
2022-11-28T14:23:37.581Z,11.45
2022-11-28T14:26:23.473Z,11.27
2022-11-28T14:28:51.847Z,10.90
2022-11-28T14:31:32.432Z,11.88
2022-11-28T14:34:05.069Z,11.88
2022-11-28T14:36:42.821Z,11.80
2022-11-28T14:39:15.955Z,12.75
2022-11-28T14:42:02.553Z,12.65
2022-11-28T14:44:46.830Z,12.20
2022-11-28T14:47:39.630Z,12.00
2022-11-28T14:50:08.144Z,12.13
2022-11-28T14:52:39.891Z,11.48
2022-11-28T14:55:12.027Z,12.73
2022-11-28T14:57:51.360Z,11.88
2022-11-28T15:00:27.025Z,12.68
2022-11-28T15:03:10.810Z,12.43
2022-11-28T15:05:38.070Z,12.85
2022-11-28T15:08:18.088Z,12.75
2022-11-28T15:10:51.243Z,12.43
2022-11-28T15:13:48.144Z,12.18
2022-11-28T15:16:18.805Z,14.18
2022-11-28T15:18:53.605Z,14.18
2022-11-28T15:21:22.480Z,14.65
2022-11-28T15:23:49.839Z,13.82
2022-11-28T15:26:26.480Z,14.40
2022-11-28T15:29:19.437Z,16.08
2022-11-28T15:31:49.895Z,15.18
2022-11-28T15:34:30.293Z,15.70
2022-11-28T15:37:16.451Z,16.33
2022-11-28T15:39:47.856Z,16.60
2022-11-28T15:42:24.838Z,17.40
2022-11-28T15:45:08.897Z,15.70
2022-11-28T15:47:36.494Z,14.98
2022-11-28T15:50:09.689Z,15.75
2022-11-28T15:52:38.056Z,15.25
2022-11-28T15:55:24.265Z,16.90
2022-11-28T15:57:51.929Z,16.13
2022-11-28T16:00:21.825Z,16.70
2022-11-28T16:02:49.283Z,15.85
2022-11-28T16:05:20.974Z,17.58
2022-11-28T16:07:51.661Z,17.10
2022-11-28T16:10:25.597Z,15.93
2022-11-28T16:13:02.360Z,16.05
2022-11-28T16:15:30.444Z,17.15
2022-11-28T16:17:58.058Z,16.20
2022-11-28T16:20:34.781Z,14.77
2022-11-28T16:23:10.192Z,15.18
2022-11-28T16:25:38.803Z,15.57
2022-11-28T16:28:36.163Z,16.45
2022-11-28T16:31:11.715Z,15.40
2022-11-28T16:33:44.733Z,14.18
2022-11-28T16:36:20.208Z,17.33
2022-11-28T16:38:49.585Z,18.30
2022-11-28T16:41:20.278Z,16.45
2022-11-28T16:43:52.456Z,16.73
2022-11-28T16:46:25.327Z,15.93
2022-11-28T16:48:59.807Z,16.73
2022-11-28T16:51:31.337Z,16.90
2022-11-28T16:54:00.145Z,17.90
2022-11-28T16:56:30.076Z,20.02
2022-11-28T16:59:14.999Z,17.67
2022-11-28T17:01:51.749Z,17.48
2022-11-28T17:04:30.420Z,16.88
2022-11-28T17:07:04.936Z,15.15
2022-11-28T17:09:33.820Z,14.95
2022-11-28T17:12:27.262Z,15.60
2022-11-28T17:14:55.616Z,16.83
2022-11-28T17:17:23.989Z,16.80
2022-11-28T17:19:51.972Z,17.17
2022-11-28T17:22:22.849Z,15.95
2022-11-28T17:24:51.736Z,15.88
2022-11-28T17:27:18.849Z,15.77
2022-11-28T17:29:46.277Z,15.77
2022-11-28T17:32:14.541Z,16.70
2022-11-28T17:34:42.318Z,16.30
2022-11-28T17:37:09.969Z,16.63
2022-11-28T17:39:37.540Z,17.77
2022-11-28T17:42:05.495Z,18.33
2022-11-28T17:44:36.025Z,19.02
2022-11-28T17:47:04.756Z,18.42
2022-11-28T17:49:32.060Z,18.35
2022-11-28T17:51:59.434Z,19.05
2022-11-28T17:54:27.472Z,18.58
2022-11-28T17:56:55.146Z,20.25
2022-11-28T17:59:24.099Z,18.20
2022-11-28T18:01:51.427Z,18.27
2022-11-28T18:04:24.179Z,18.52
2022-11-28T18:06:51.517Z,17.92
2022-11-28T18:09:18.693Z,18.73
2022-11-28T18:11:48.879Z,17.02
2022-11-28T18:14:19.485Z,16.65
2022-11-28T18:16:47.539Z,19.23
2022-11-28T18:19:14.857Z,19.50
2022-11-28T18:21:41.961Z,17.98
2022-11-28T18:24:09.717Z,19.48
2022-11-28T18:26:37.689Z,21.90
2022-11-28T18:29:06.958Z,29.92
2022-11-28T18:31:35.382Z,22.05
2022-11-28T18:34:04.905Z,22.67
2022-11-28T18:36:36.708Z,23.35
2022-11-28T18:39:07.308Z,21.33
2022-11-28T18:41:34.683Z,22.23
2022-11-28T18:44:04.788Z,22.35
2022-11-28T18:46:34.471Z,21.45
2022-11-28T18:49:03.171Z,20.63
2022-11-28T18:51:34.845Z,22.45
2022-11-28T18:54:04.812Z,23.13
2022-11-28T18:56:33.643Z,22.20
2022-11-28T18:59:00.918Z,21.20
2022-11-28T19:01:31.636Z,20.80
2022-11-28T19:04:07.175Z,21.38
2022-11-28T19:06:36.042Z,21.30
2022-11-28T19:09:05.666Z,21.92
2022-11-28T19:11:33.417Z,23.60
2022-11-28T19:14:01.792Z,21.30
2022-11-28T19:16:32.018Z,23.65
2022-11-28T19:19:01.020Z,25.25
2022-11-28T19:21:32.784Z,24.27
2022-11-28T19:24:01.017Z,22.67
2022-11-28T19:26:30.445Z,25.25
2022-11-28T19:29:00.104Z,23.95
2022-11-28T19:31:30.027Z,24.48
2022-11-28T19:34:01.918Z,24.23
2022-11-28T19:36:37.572Z,23.90
2022-11-28T19:39:05.300Z,23.27
2022-11-28T19:41:33.257Z,24.08
2022-11-28T19:44:01.402Z,23.60
2022-11-28T19:46:34.983Z,24.27
2022-11-28T19:49:05.210Z,23.10
2022-11-28T19:51:32.748Z,23.88
2022-11-28T19:54:03.589Z,24.20
2022-11-28T19:56:32.483Z,25.48
2022-11-28T19:58:59.816Z,26.38
2022-11-28T20:01:28.581Z,24.77
2022-11-28T20:03:57.681Z,29.42
2022-11-28T20:06:30.189Z,27.55
2022-11-28T20:09:00.935Z,24.98
2022-11-28T20:11:31.273Z,24.00
2022-11-28T20:14:08.285Z,25.50
2022-11-28T20:16:36.649Z,25.10
2022-11-28T20:19:05.852Z,24.98
2022-11-28T20:21:34.657Z,23.50
2022-11-28T20:24:05.010Z,23.52
2022-11-28T20:26:38.273Z,26.20
2022-11-28T20:29:06.811Z,25.88
2022-11-28T20:31:37.345Z,24.75
2022-11-28T20:34:06.422Z,25.08
2022-11-28T20:36:34.032Z,27.00
2022-11-28T20:39:01.991Z,25.55
2022-11-28T20:41:29.632Z,26.58
2022-11-28T20:43:59.465Z,26.52
2022-11-28T20:46:30.257Z,26.95
2022-11-28T20:48:59.710Z,26.10
2022-11-28T20:51:29.386Z,25.13
2022-11-28T20:53:58.100Z,24.73
2022-11-28T20:56:29.556Z,23.55
2022-11-28T20:59:01.792Z,24.58
2022-11-28T21:01:34.359Z,26.75
2022-11-28T21:04:04.167Z,26.05
2022-11-28T21:06:31.425Z,24.73
2022-11-28T21:08:58.905Z,27.42
2022-11-28T21:11:55.274Z,24.13
2022-11-28T21:14:15.443Z,23.67
2022-11-28T21:16:43.627Z,23.92
2022-11-28T21:19:11.460Z,23.58
2022-11-28T21:21:40.079Z,24.83
2022-11-28T21:24:12.028Z,24.77
2022-11-28T21:26:43.137Z,23.23
2022-11-28T21:29:12.919Z,23.50
2022-11-28T21:31:43.682Z,24.25
2022-11-28T21:34:16.453Z,23.90
2022-11-28T21:36:43.859Z,26.17
2022-11-28T21:39:13.936Z,24.35
2022-11-28T21:41:41.152Z,26.15
2022-11-28T21:44:08.941Z,23.63
2022-11-28T21:46:36.250Z,25.17
2022-11-28T21:49:03.449Z,25.33
2022-11-28T21:51:30.556Z,24.60
2022-11-28T21:53:58.366Z,25.08
2022-11-28T21:56:26.534Z,25.08
2022-11-28T21:58:54.229Z,24.50
2022-11-28T22:01:21.616Z,26.13
2022-11-28T22:03:49.485Z,26.77
2022-11-28T22:06:20.161Z,27.73
2022-11-28T22:08:49.166Z,28.73
2022-11-28T22:11:17.032Z,28.17
2022-11-28T22:13:47.933Z,27.20
2022-11-28T22:16:24.506Z,25.35
2022-11-28T22:18:53.306Z,26.60
2022-11-28T22:24:08.720Z,25.75
2022-11-28T22:26:36.414Z,25.63
2022-11-28T22:29:04.648Z,25.25
2022-11-28T22:31:32.913Z,26.42
2022-11-28T22:34:00.352Z,26.98
2022-11-28T22:36:27.788Z,26.42
2022-11-28T22:38:57.730Z,27.88
2022-11-28T22:41:29.192Z,25.70
2022-11-28T22:44:00.600Z,26.70
2022-11-28T22:46:28.548Z,25.58
2022-11-28T22:48:56.058Z,24.92
2022-11-28T22:51:25.498Z,25.00
2022-11-28T22:53:58.915Z,26.05
2022-11-28T22:56:29.321Z,25.33
2022-11-28T22:58:58.743Z,26.17
2022-11-28T23:01:30.071Z,25.80
2022-11-28T23:03:57.661Z,27.63
2022-11-28T23:06:27.782Z,28.20
2022-11-28T23:08:57.242Z,27.27
2022-11-28T23:11:29.050Z,28.10
2022-11-28T23:13:56.401Z,27.30
2022-11-28T23:16:38.759Z,27.08
2022-11-28T23:19:10.486Z,27.17
2022-11-28T23:21:40.953Z,26.77
2022-11-28T23:24:14.056Z,27.10
2022-11-28T23:26:41.759Z,28.23
2022-11-28T23:29:09.780Z,27.67
2022-11-28T23:31:40.632Z,25.40
2022-11-28T23:34:09.583Z,28.40
2022-11-28T23:36:43.976Z,28.25
2022-11-28T23:39:15.169Z,26.55
2022-11-28T23:41:42.857Z,26.00
2022-11-28T23:44:11.779Z,27.33
2022-11-28T23:46:39.690Z,25.67
2022-11-28T23:49:07.387Z,27.38
2022-11-28T23:51:35.102Z,27.58
2022-11-28T23:54:02.209Z,26.83
2022-11-28T23:56:33.541Z,28.88
2022-11-28T23:59:02.782Z,27.90
